sensor_id;sensor_type;location;lat;lon;timestamp;pressure;altitude;pressure_sealevel;temperature;humidity
81478;BME280;70892;52.526;5.494;2023-07-08T00:01:10;101957.25;;;17.20;69.68
81478;BME280;70892;52.526;5.494;2023-07-08T00:03:37;101957.19;;;17.09;69.66
81478;BME280;70892;52.526;5.494;2023-07-08T00:06:02;101947.75;;;17.13;69.27
81478;BME280;70892;52.526;5.494;2023-07-08T00:08:27;101950.91;;;17.20;69.32
81478;BME280;70892;52.526;5.494;2023-07-08T00:10:53;101950.81;;;17.21;69.19
81478;BME280;70892;52.526;5.494;2023-07-08T00:13:19;101948.38;;;17.17;69.17
81478;BME280;70892;52.526;5.494;2023-07-08T00:15:48;101939.66;;;17.12;69.36
81478;BME280;70892;52.526;5.494;2023-07-08T00:18:16;101939.66;;;17.12;69.50
81478;BME280;70892;52.526;5.494;2023-07-08T00:20:51;101935.06;;;17.12;69.31
81478;BME280;70892;52.526;5.494;2023-07-08T00:23:17;101932.22;;;17.14;69.20
81478;BME280;70892;52.526;5.494;2023-07-08T00:25:46;101941.94;;;17.05;69.37
81478;BME280;70892;52.526;5.494;2023-07-08T00:28:19;101934.31;;;16.98;69.49
81478;BME280;70892;52.526;5.494;2023-07-08T00:30:45;101932.00;;;16.91;70.05
81478;BME280;70892;52.526;5.494;2023-07-08T00:33:11;101934.63;;;16.93;69.53
81478;BME280;70892;52.526;5.494;2023-07-08T00:35:47;101932.44;;;16.85;70.51
81478;BME280;70892;52.526;5.494;2023-07-08T00:38:15;101936.59;;;16.78;70.98
81478;BME280;70892;52.526;5.494;2023-07-08T00:43:23;101936.47;;;16.80;70.40
81478;BME280;70892;52.526;5.494;2023-07-08T00:45:50;101935.97;;;16.87;70.02
81478;BME280;70892;52.526;5.494;2023-07-08T00:48:22;101934.72;;;16.91;69.55
81478;BME280;70892;52.526;5.494;2023-07-08T00:50:48;101930.91;;;16.94;69.52
81478;BME280;70892;52.526;5.494;2023-07-08T00:53:31;101926.06;;;17.10;68.76
81478;BME280;70892;52.526;5.494;2023-07-08T00:56:00;101912.06;;;17.15;68.23
81478;BME280;70892;52.526;5.494;2023-07-08T00:58:34;101911.28;;;17.13;68.20
81478;BME280;70892;52.526;5.494;2023-07-08T01:01:03;101915.34;;;17.07;68.71
81478;BME280;70892;52.526;5.494;2023-07-08T01:03:47;101912.38;;;17.10;68.15
81478;BME280;70892;52.526;5.494;2023-07-08T01:06:15;101910.19;;;17.03;68.87
81478;BME280;70892;52.526;5.494;2023-07-08T01:08:56;101910.75;;;16.95;69.20
81478;BME280;70892;52.526;5.494;2023-07-08T01:11:21;101902.75;;;16.92;69.04
81478;BME280;70892;52.526;5.494;2023-07-08T01:13:48;101906.81;;;16.86;69.03
81478;BME280;70892;52.526;5.494;2023-07-08T01:16:16;101907.34;;;16.79;69.59
81478;BME280;70892;52.526;5.494;2023-07-08T01:18:42;101899.91;;;16.81;68.98
81478;BME280;70892;52.526;5.494;2023-07-08T01:24:16;101913.72;;;16.79;69.32
81478;BME280;70892;52.526;5.494;2023-07-08T01:26:43;101895.66;;;16.77;69.18
81478;BME280;70892;52.526;5.494;2023-07-08T01:29:10;101898.84;;;16.71;69.42
81478;BME280;70892;52.526;5.494;2023-07-08T01:31:37;101904.84;;;16.63;70.06
81478;BME280;70892;52.526;5.494;2023-07-08T01:34:04;101896.69;;;16.61;70.33
81478;BME280;70892;52.526;5.494;2023-07-08T01:36:37;101892.09;;;16.49;70.66
81478;BME280;70892;52.526;5.494;2023-07-08T01:39:04;101888.59;;;16.47;70.52
81478;BME280;70892;52.526;5.494;2023-07-08T01:41:29;101887.81;;;16.45;70.74
81478;BME280;70892;52.526;5.494;2023-07-08T01:43:58;101886.53;;;16.38;71.34
81478;BME280;70892;52.526;5.494;2023-07-08T01:46:25;101880.81;;;16.29;71.52
81478;BME280;70892;52.526;5.494;2023-07-08T01:49:01;101877.44;;;16.25;71.35
81478;BME280;70892;52.526;5.494;2023-07-08T01:51:28;101882.00;;;16.24;71.58
81478;BME280;70892;52.526;5.494;2023-07-08T01:53:53;101884.84;;;16.23;71.60
81478;BME280;70892;52.526;5.494;2023-07-08T01:56:18;101876.88;;;16.33;71.29
81478;BME280;70892;52.526;5.494;2023-07-08T01:58:44;101875.13;;;16.32;71.00
81478;BME280;70892;52.526;5.494;2023-07-08T02:01:10;101872.25;;;16.20;71.44
81478;BME280;70892;52.526;5.494;2023-07-08T02:03:35;101860.91;;;16.14;71.70
81478;BME280;70892;52.526;5.494;2023-07-08T02:06:01;101870.63;;;16.18;71.21
81478;BME280;70892;52.526;5.494;2023-07-08T02:08:27;101859.25;;;16.24;71.29
81478;BME280;70892;52.526;5.494;2023-07-08T02:10:55;101864.94;;;16.21;71.14
81478;BME280;70892;52.526;5.494;2023-07-08T02:13:22;101858.81;;;16.17;71.34
81478;BME280;70892;52.526;5.494;2023-07-08T02:15:48;101856.06;;;16.17;71.10
81478;BME280;70892;52.526;5.494;2023-07-08T02:18:14;101857.97;;;16.30;70.65
81478;BME280;70892;52.526;5.494;2023-07-08T02:20:40;101850.19;;;16.23;71.04
81478;BME280;70892;52.526;5.494;2023-07-08T02:23:05;101851.59;;;16.16;71.36
81478;BME280;70892;52.526;5.494;2023-07-08T02:25:30;101845.78;;;16.08;71.30
81478;BME280;70892;52.526;5.494;2023-07-08T02:27:56;101838.25;;;15.99;71.97
81478;BME280;70892;52.526;5.494;2023-07-08T02:30:26;101833.38;;;15.90;72.33
81478;BME280;70892;52.526;5.494;2023-07-08T02:32:53;101830.34;;;15.95;71.93
81478;BME280;70892;52.526;5.494;2023-07-08T02:35:26;101824.22;;;15.91;72.16
81478;BME280;70892;52.526;5.494;2023-07-08T02:37:53;101831.09;;;15.84;72.66
81478;BME280;70892;52.526;5.494;2023-07-08T02:40:19;101827.69;;;15.80;72.49
81478;BME280;70892;52.526;5.494;2023-07-08T02:42:47;101830.81;;;15.74;72.80
81478;BME280;70892;52.526;5.494;2023-07-08T02:45:13;101816.28;;;15.74;72.86
81478;BME280;70892;52.526;5.494;2023-07-08T02:47:39;101816.97;;;15.77;72.58
81478;BME280;70892;52.526;5.494;2023-07-08T02:50:06;101814.78;;;15.70;72.77
81478;BME280;70892;52.526;5.494;2023-07-08T02:52:32;101817.50;;;15.70;72.50
81478;BME280;70892;52.526;5.494;2023-07-08T02:54:58;101812.44;;;15.64;72.91
81478;BME280;70892;52.526;5.494;2023-07-08T02:57:23;101813.63;;;15.60;73.28
81478;BME280;70892;52.526;5.494;2023-07-08T02:59:51;101815.09;;;15.51;73.68
81478;BME280;70892;52.526;5.494;2023-07-08T03:02:17;101813.53;;;15.47;73.67
81478;BME280;70892;52.526;5.494;2023-07-08T03:04:49;101823.03;;;15.41;73.91
81478;BME280;70892;52.526;5.494;2023-07-08T03:07:15;101813.88;;;15.42;73.76
81478;BME280;70892;52.526;5.494;2023-07-08T03:09:41;101808.50;;;15.41;74.14
81478;BME280;70892;52.526;5.494;2023-07-08T03:12:08;101812.91;;;15.43;74.00
81478;BME280;70892;52.526;5.494;2023-07-08T03:14:33;101807.63;;;15.40;73.94
81478;BME280;70892;52.526;5.494;2023-07-08T03:16:58;101810.72;;;15.48;73.75
81478;BME280;70892;52.526;5.494;2023-07-08T03:19:24;101806.91;;;15.51;73.07
81478;BME280;70892;52.526;5.494;2023-07-08T03:21:50;101808.28;;;15.44;73.86
81478;BME280;70892;52.526;5.494;2023-07-08T03:24:15;101798.47;;;15.41;73.35
81478;BME280;70892;52.526;5.494;2023-07-08T03:26:44;101804.03;;;15.40;73.85
81478;BME280;70892;52.526;5.494;2023-07-08T03:29:19;101803.34;;;15.36;73.65
81478;BME280;70892;52.526;5.494;2023-07-08T03:31:45;101813.59;;;15.33;73.86
81478;BME280;70892;52.526;5.494;2023-07-08T03:34:12;101810.88;;;15.33;73.81
81478;BME280;70892;52.526;5.494;2023-07-08T03:36:49;101796.44;;;15.31;74.05
81478;BME280;70892;52.526;5.494;2023-07-08T03:39:23;101799.16;;;15.31;73.79
81478;BME280;70892;52.526;5.494;2023-07-08T03:41:50;101804.34;;;15.35;73.58
81478;BME280;70892;52.526;5.494;2023-07-08T03:44:15;101808.34;;;15.30;73.92
81478;BME280;70892;52.526;5.494;2023-07-08T03:46:42;101809.00;;;15.33;73.98
81478;BME280;70892;52.526;5.494;2023-07-08T03:49:09;101805.72;;;15.28;74.05
81478;BME280;70892;52.526;5.494;2023-07-08T03:51:36;101810.63;;;15.23;73.97
81478;BME280;70892;52.526;5.494;2023-07-08T03:54:03;101803.09;;;15.27;73.85
81478;BME280;70892;52.526;5.494;2023-07-08T03:56:29;101803.19;;;15.25;74.15
81478;BME280;70892;52.526;5.494;2023-07-08T03:58:55;101815.88;;;15.26;74.26
81478;BME280;70892;52.526;5.494;2023-07-08T04:01:22;101807.50;;;15.29;73.73
81478;BME280;70892;52.526;5.494;2023-07-08T04:03:52;101802.78;;;15.31;73.70
81478;BME280;70892;52.526;5.494;2023-07-08T04:06:18;101808.03;;;15.34;73.78
81478;BME280;70892;52.526;5.494;2023-07-08T04:08:44;101815.16;;;15.37;73.51
81478;BME280;70892;52.526;5.494;2023-07-08T04:11:16;101820.91;;;15.32;73.74
81478;BME280;70892;52.526;5.494;2023-07-08T04:13:41;101817.41;;;15.30;74.17
81478;BME280;70892;52.526;5.494;2023-07-08T04:16:07;101815.53;;;15.31;74.05
81478;BME280;70892;52.526;5.494;2023-07-08T04:18:33;101817.88;;;15.37;74.09
81478;BME280;70892;52.526;5.494;2023-07-08T04:20:59;101822.81;;;15.44;73.43
81478;BME280;70892;52.526;5.494;2023-07-08T04:23:25;101819.88;;;15.47;73.12
81478;BME280;70892;52.526;5.494;2023-07-08T04:25:53;101823.09;;;15.54;72.56
81478;BME280;70892;52.526;5.494;2023-07-08T04:28:19;101822.06;;;15.57;73.01
81478;BME280;70892;52.526;5.494;2023-07-08T04:30:44;101822.28;;;15.66;72.46
81478;BME280;70892;52.526;5.494;2023-07-08T04:33:12;101827.22;;;15.74;72.28
81478;BME280;70892;52.526;5.494;2023-07-08T04:35:39;101817.63;;;15.81;71.93
81478;BME280;70892;52.526;5.494;2023-07-08T04:38:20;101820.66;;;15.76;71.85
81478;BME280;70892;52.526;5.494;2023-07-08T04:40:47;101823.31;;;15.78;72.23
81478;BME280;70892;52.526;5.494;2023-07-08T04:43:12;101821.53;;;15.77;72.29
81478;BME280;70892;52.526;5.494;2023-07-08T04:45:43;101823.88;;;15.83;72.13
81478;BME280;70892;52.526;5.494;2023-07-08T04:48:14;101821.03;;;15.84;72.07
81478;BME280;70892;52.526;5.494;2023-07-08T04:50:44;101809.34;;;15.82;72.05
81478;BME280;70892;52.526;5.494;2023-07-08T04:53:11;101826.28;;;15.87;71.88
81478;BME280;70892;52.526;5.494;2023-07-08T04:55:42;101815.47;;;15.86;71.97
81478;BME280;70892;52.526;5.494;2023-07-08T04:58:09;101821.16;;;15.96;71.36
81478;BME280;70892;52.526;5.494;2023-07-08T05:00:35;101818.31;;;15.97;71.59
81478;BME280;70892;52.526;5.494;2023-07-08T05:03:00;101817.69;;;16.06;71.15
81478;BME280;70892;52.526;5.494;2023-07-08T05:05:25;101809.25;;;16.09;71.18
81478;BME280;70892;52.526;5.494;2023-07-08T05:07:51;101810.56;;;16.16;71.01
81478;BME280;70892;52.526;5.494;2023-07-08T05:10:17;101821.09;;;16.22;70.81
81478;BME280;70892;52.526;5.494;2023-07-08T05:12:43;101806.00;;;16.30;70.31
81478;BME280;70892;52.526;5.494;2023-07-08T05:15:09;101813.66;;;16.37;69.95
81478;BME280;70892;52.526;5.494;2023-07-08T05:17:37;101807.88;;;16.42;69.65
81478;BME280;70892;52.526;5.494;2023-07-08T05:20:03;101812.25;;;16.44;69.99
81478;BME280;70892;52.526;5.494;2023-07-08T05:22:29;101811.59;;;16.53;69.98
81478;BME280;70892;52.526;5.494;2023-07-08T05:24:54;101813.00;;;16.59;69.44
81478;BME280;70892;52.526;5.494;2023-07-08T05:27:24;101807.41;;;16.60;69.51
81478;BME280;70892;52.526;5.494;2023-07-08T05:29:49;101816.19;;;16.66;70.42
81478;BME280;70892;52.526;5.494;2023-07-08T05:32:15;101816.28;;;16.77;68.84
81478;BME280;70892;52.526;5.494;2023-07-08T05:34:41;101814.00;;;16.83;69.37
81478;BME280;70892;52.526;5.494;2023-07-08T05:37:07;101806.28;;;16.88;69.14
81478;BME280;70892;52.526;5.494;2023-07-08T05:39:33;101806.28;;;17.01;68.50
81478;BME280;70892;52.526;5.494;2023-07-08T05:41:58;101806.47;;;17.11;67.78
81478;BME280;70892;52.526;5.494;2023-07-08T05:44:24;101802.28;;;17.18;67.64
81478;BME280;70892;52.526;5.494;2023-07-08T05:46:50;101799.75;;;17.27;67.48
81478;BME280;70892;52.526;5.494;2023-07-08T05:49:15;101802.38;;;17.29;67.19
81478;BME280;70892;52.526;5.494;2023-07-08T05:51:42;101797.94;;;17.39;67.19
81478;BME280;70892;52.526;5.494;2023-07-08T05:54:08;101800.06;;;17.47;66.96
81478;BME280;70892;52.526;5.494;2023-07-08T05:56:33;101806.97;;;17.52;67.22
81478;BME280;70892;52.526;5.494;2023-07-08T05:58:58;101807.03;;;17.63;65.48
81478;BME280;70892;52.526;5.494;2023-07-08T06:01:24;101799.13;;;17.72;65.62
81478;BME280;70892;52.526;5.494;2023-07-08T06:03:49;101788.19;;;17.83;65.08
81478;BME280;70892;52.526;5.494;2023-07-08T06:06:15;101795.69;;;17.92;65.05
81478;BME280;70892;52.526;5.494;2023-07-08T06:08:40;101791.25;;;18.02;64.74
81478;BME280;70892;52.526;5.494;2023-07-08T06:11:06;101791.28;;;18.13;64.37
81478;BME280;70892;52.526;5.494;2023-07-08T06:13:31;101783.59;;;18.41;63.69
81478;BME280;70892;52.526;5.494;2023-07-08T06:15:57;101788.06;;;19.08;61.53
81478;BME280;70892;52.526;5.494;2023-07-08T06:18:22;101789.84;;;19.85;59.48
81478;BME280;70892;52.526;5.494;2023-07-08T06:20:55;101783.28;;;20.90;55.69
81478;BME280;70892;52.526;5.494;2023-07-08T06:23:21;101777.34;;;21.82;53.65
81478;BME280;70892;52.526;5.494;2023-07-08T06:25:47;101777.25;;;22.50;51.16
81478;BME280;70892;52.526;5.494;2023-07-08T06:28:12;101771.59;;;23.16;49.09
81478;BME280;70892;52.526;5.494;2023-07-08T06:30:37;101776.28;;;23.78;46.75
81478;BME280;70892;52.526;5.494;2023-07-08T06:33:03;101770.22;;;24.44;45.33
81478;BME280;70892;52.526;5.494;2023-07-08T06:35:29;101769.50;;;24.68;44.52
81478;BME280;70892;52.526;5.494;2023-07-08T06:37:54;101766.78;;;24.76;44.79
81478;BME280;70892;52.526;5.494;2023-07-08T06:40:20;101760.56;;;25.16;43.64
81478;BME280;70892;52.526;5.494;2023-07-08T06:42:45;101765.31;;;25.40;42.94
81478;BME280;70892;52.526;5.494;2023-07-08T06:45:11;101765.88;;;25.60;43.63
81478;BME280;70892;52.526;5.494;2023-07-08T06:47:36;101773.56;;;25.74;42.17
81478;BME280;70892;52.526;5.494;2023-07-08T06:50:02;101770.78;;;25.66;42.10
81478;BME280;70892;52.526;5.494;2023-07-08T06:52:28;101769.22;;;26.04;42.05
81478;BME280;70892;52.526;5.494;2023-07-08T06:55:00;101777.91;;;26.25;41.30
81478;BME280;70892;52.526;5.494;2023-07-08T06:57:26;101775.78;;;26.60;41.01
81478;BME280;70892;52.526;5.494;2023-07-08T06:59:52;101772.94;;;26.76;40.35
81478;BME280;70892;52.526;5.494;2023-07-08T07:02:17;101770.69;;;26.71;40.12
81478;BME280;70892;52.526;5.494;2023-07-08T07:04:43;101775.19;;;26.97;39.84
81478;BME280;70892;52.526;5.494;2023-07-08T07:07:09;101772.22;;;27.29;39.62
81478;BME280;70892;52.526;5.494;2023-07-08T07:09:34;101773.41;;;27.35;38.85
81478;BME280;70892;52.526;5.494;2023-07-08T07:11:59;101765.97;;;27.58;38.18
81478;BME280;70892;52.526;5.494;2023-07-08T07:14:25;101767.06;;;27.18;39.73
81478;BME280;70892;52.526;5.494;2023-07-08T07:16:50;101770.13;;;27.31;39.67
81478;BME280;70892;52.526;5.494;2023-07-08T07:19:15;101763.16;;;27.35;39.08
81478;BME280;70892;52.526;5.494;2023-07-08T07:21:41;101761.56;;;27.10;40.51
81478;BME280;70892;52.526;5.494;2023-07-08T07:24:06;101767.84;;;27.35;39.07
81478;BME280;70892;52.526;5.494;2023-07-08T07:26:32;101763.41;;;27.49;38.47
81478;BME280;70892;52.526;5.494;2023-07-08T07:28:58;101767.78;;;27.74;39.16
81478;BME280;70892;52.526;5.494;2023-07-08T07:31:23;101776.41;;;27.64;38.43
81478;BME280;70892;52.526;5.494;2023-07-08T07:33:48;101779.25;;;28.16;37.44
81478;BME280;70892;52.526;5.494;2023-07-08T07:36:14;101786.78;;;27.93;38.19
81478;BME280;70892;52.526;5.494;2023-07-08T07:38:39;101787.63;;;27.71;40.01
81478;BME280;70892;52.526;5.494;2023-07-08T07:41:05;101787.97;;;27.99;39.33
81478;BME280;70892;52.526;5.494;2023-07-08T07:43:33;101790.88;;;28.43;38.42
81478;BME280;70892;52.526;5.494;2023-07-08T07:45:59;101799.75;;;28.46;39.84
81478;BME280;70892;52.526;5.494;2023-07-08T07:48:24;101793.38;;;28.15;36.66
81478;BME280;70892;52.526;5.494;2023-07-08T07:50:50;101784.13;;;27.46;39.88
81478;BME280;70892;52.526;5.494;2023-07-08T07:53:16;101786.22;;;27.75;40.51
81478;BME280;70892;52.526;5.494;2023-07-08T07:55:42;101775.91;;;27.53;41.67
81478;BME280;70892;52.526;5.494;2023-07-08T07:58:07;101774.00;;;27.84;40.38
81478;BME280;70892;52.526;5.494;2023-07-08T08:00:33;101780.47;;;27.99;38.63
81478;BME280;70892;52.526;5.494;2023-07-08T08:02:59;101771.03;;;27.55;38.77
81478;BME280;70892;52.526;5.494;2023-07-08T08:05:24;101768.34;;;27.07;42.60
81478;BME280;70892;52.526;5.494;2023-07-08T08:07:50;101775.50;;;26.86;42.55
81478;BME280;70892;52.526;5.494;2023-07-08T08:10:15;101774.16;;;26.82;43.71
81478;BME280;70892;52.526;5.494;2023-07-08T08:12:41;101771.59;;;26.64;45.15
81478;BME280;70892;52.526;5.494;2023-07-08T08:15:07;101773.00;;;26.68;41.33
81478;BME280;70892;52.526;5.494;2023-07-08T08:17:32;101783.38;;;26.82;44.72
81478;BME280;70892;52.526;5.494;2023-07-08T08:19:58;101787.19;;;26.81;42.55
81478;BME280;70892;52.526;5.494;2023-07-08T08:22:23;101774.97;;;26.98;41.68
81478;BME280;70892;52.526;5.494;2023-07-08T08:24:49;101768.56;;;26.98;42.96
81478;BME280;70892;52.526;5.494;2023-07-08T08:27:15;101767.41;;;27.23;40.15
81478;BME280;70892;52.526;5.494;2023-07-08T08:29:43;101767.69;;;27.28;40.54
81478;BME280;70892;52.526;5.494;2023-07-08T08:32:09;101766.53;;;27.54;40.19
81478;BME280;70892;52.526;5.494;2023-07-08T08:34:34;101770.56;;;27.74;40.58
81478;BME280;70892;52.526;5.494;2023-07-08T08:36:59;101767.16;;;27.33;40.15
81478;BME280;70892;52.526;5.494;2023-07-08T08:39:25;101760.91;;;27.62;42.36
81478;BME280;70892;52.526;5.494;2023-07-08T08:41:54;101753.94;;;27.66;39.38
81478;BME280;70892;52.526;5.494;2023-07-08T08:44:26;101757.22;;;27.69;38.67
81478;BME280;70892;52.526;5.494;2023-07-08T08:49:35;101771.22;;;27.84;38.41
81478;BME280;70892;52.526;5.494;2023-07-08T08:52:03;101760.91;;;27.85;38.50
81478;BME280;70892;52.526;5.494;2023-07-08T08:54:32;101766.97;;;27.88;38.57
81478;BME280;70892;52.526;5.494;2023-07-08T09:02:42;101773.81;;;28.61;40.84
81478;BME280;70892;52.526;5.494;2023-07-08T09:05:13;101768.88;;;28.48;41.23
81478;BME280;70892;52.526;5.494;2023-07-08T09:13:33;101764.69;;;28.67;38.67
81478;BME280;70892;52.526;5.494;2023-07-08T09:16:20;101768.72;;;28.49;38.88
81478;BME280;70892;52.526;5.494;2023-07-08T09:19:15;101768.22;;;28.61;38.48
81478;BME280;70892;52.526;5.494;2023-07-08T09:22:01;101774.50;;;28.77;38.78
81478;BME280;70892;52.526;5.494;2023-07-08T09:27:03;101771.44;;;28.87;38.72
81478;BME280;70892;52.526;5.494;2023-07-08T09:29:29;101772.03;;;28.97;41.05
81478;BME280;70892;52.526;5.494;2023-07-08T09:31:54;101771.97;;;29.41;42.47
81478;BME280;70892;52.526;5.494;2023-07-08T09:34:22;101765.44;;;29.19;41.02
81478;BME280;70892;52.526;5.494;2023-07-08T09:36:49;101774.22;;;29.02;40.22
81478;BME280;70892;52.526;5.494;2023-07-08T09:39:20;101780.53;;;29.40;37.70
81478;BME280;70892;52.526;5.494;2023-07-08T09:41:47;101769.72;;;29.73;36.70
81478;BME280;70892;52.526;5.494;2023-07-08T09:46:42;101763.94;;;30.66;36.81
81478;BME280;70892;52.526;5.494;2023-07-08T09:49:32;101761.75;;;30.62;34.67
81478;BME280;70892;52.526;5.494;2023-07-08T09:51:58;101764.69;;;30.26;37.22
81478;BME280;70892;52.526;5.494;2023-07-08T09:54:25;101765.84;;;30.38;35.34
81478;BME280;70892;52.526;5.494;2023-07-08T09:57:11;101776.38;;;30.57;37.41
81478;BME280;70892;52.526;5.494;2023-07-08T09:59:40;101769.41;;;30.53;34.42
81478;BME280;70892;52.526;5.494;2023-07-08T10:04:56;101765.34;;;30.83;35.81
81478;BME280;70892;52.526;5.494;2023-07-08T10:07:22;101764.94;;;30.86;35.90
81478;BME280;70892;52.526;5.494;2023-07-08T10:09:53;101766.34;;;30.76;37.76
81478;BME280;70892;52.526;5.494;2023-07-08T10:12:21;101768.66;;;30.66;34.54
81478;BME280;70892;52.526;5.494;2023-07-08T10:14:52;101779.03;;;30.72;40.25
81478;BME280;70892;52.526;5.494;2023-07-08T10:17:20;101783.44;;;30.59;38.11
81478;BME280;70892;52.526;5.494;2023-07-08T10:19:46;101780.91;;;30.37;39.20
81478;BME280;70892;52.526;5.494;2023-07-08T10:22:37;101773.66;;;30.70;36.36
81478;BME280;70892;52.526;5.494;2023-07-08T10:27:57;101767.06;;;31.93;32.94
81478;BME280;70892;52.526;5.494;2023-07-08T10:30:30;101776.16;;;32.21;32.48
81478;BME280;70892;52.526;5.494;2023-07-08T10:35:44;101760.81;;;31.84;34.28
81478;BME280;70892;52.526;5.494;2023-07-08T10:38:20;101757.41;;;32.28;32.49
81478;BME280;70892;52.526;5.494;2023-07-08T10:41:05;101758.69;;;32.72;31.26
81478;BME280;70892;52.526;5.494;2023-07-08T10:43:57;101757.38;;;32.55;30.70
81478;BME280;70892;52.526;5.494;2023-07-08T10:54:58;101771.19;;;32.50;33.37
81478;BME280;70892;52.526;5.494;2023-07-08T11:05:45;101752.13;;;33.49;30.08
81478;BME280;70892;52.526;5.494;2023-07-08T11:08:21;101748.41;;;33.93;29.52
81478;BME280;70892;52.526;5.494;2023-07-08T11:11:01;101745.22;;;34.39;31.57
81478;BME280;70892;52.526;5.494;2023-07-08T11:13:30;101742.94;;;34.73;28.02
81478;BME280;70892;52.526;5.494;2023-07-08T11:16:09;101746.09;;;34.83;28.28
81478;BME280;70892;52.526;5.494;2023-07-08T11:19:03;101741.94;;;35.04;29.41
81478;BME280;70892;52.526;5.494;2023-07-08T11:21:43;101739.66;;;34.94;28.71
81478;BME280;70892;52.526;5.494;2023-07-08T11:24:14;101742.00;;;34.97;29.28
81478;BME280;70892;52.526;5.494;2023-07-08T11:29:42;101735.47;;;35.03;28.15
81478;BME280;70892;52.526;5.494;2023-07-08T11:32:26;101721.09;;;35.41;29.96
81478;BME280;70892;52.526;5.494;2023-07-08T11:34:57;101730.41;;;35.42;28.58
81478;BME280;70892;52.526;5.494;2023-07-08T11:37:38;101733.84;;;35.44;33.93
81478;BME280;70892;52.526;5.494;2023-07-08T11:40:20;101741.44;;;35.43;26.85
81478;BME280;70892;52.526;5.494;2023-07-08T11:42:59;101720.59;;;35.33;29.26
81478;BME280;70892;52.526;5.494;2023-07-08T11:45:40;101728.53;;;35.36;26.86
81478;BME280;70892;52.526;5.494;2023-07-08T11:51:33;101733.19;;;35.60;26.28
81478;BME280;70892;52.526;5.494;2023-07-08T12:00:18;101715.66;;;35.28;27.11
81478;BME280;70892;52.526;5.494;2023-07-08T12:02:58;101710.75;;;35.35;26.33
81478;BME280;70892;52.526;5.494;2023-07-08T12:05:36;101703.31;;;35.41;26.12
81478;BME280;70892;52.526;5.494;2023-07-08T12:08:32;101703.53;;;35.69;25.73
81478;BME280;70892;52.526;5.494;2023-07-08T12:10:58;101707.34;;;36.05;25.35
81478;BME280;70892;52.526;5.494;2023-07-08T12:13:24;101705.97;;;36.07;24.26
81478;BME280;70892;52.526;5.494;2023-07-08T12:15:50;101695.09;;;36.58;23.82
81478;BME280;70892;52.526;5.494;2023-07-08T12:18:21;101702.09;;;36.78;24.22
81478;BME280;70892;52.526;5.494;2023-07-08T12:20:54;101702.47;;;36.35;26.11
81478;BME280;70892;52.526;5.494;2023-07-08T12:23:24;101708.47;;;36.39;25.64
81478;BME280;70892;52.526;5.494;2023-07-08T12:25:51;101695.13;;;36.34;24.20
81478;BME280;70892;52.526;5.494;2023-07-08T12:28:20;101706.34;;;36.69;24.08
81478;BME280;70892;52.526;5.494;2023-07-08T12:30:47;101698.13;;;37.31;23.65
81478;BME280;70892;52.526;5.494;2023-07-08T12:33:18;101696.22;;;37.20;23.71
81478;BME280;70892;52.526;5.494;2023-07-08T12:35:45;101689.97;;;37.18;23.82
81478;BME280;70892;52.526;5.494;2023-07-08T12:38:34;101688.13;;;37.40;24.16
81478;BME280;70892;52.526;5.494;2023-07-08T12:41:08;101685.25;;;37.52;22.73
81478;BME280;70892;52.526;5.494;2023-07-08T12:43:34;101684.31;;;37.18;23.78
81478;BME280;70892;52.526;5.494;2023-07-08T12:46:00;101680.38;;;37.47;24.87
81478;BME280;70892;52.526;5.494;2023-07-08T12:48:38;101677.38;;;37.26;22.58
81478;BME280;70892;52.526;5.494;2023-07-08T12:51:13;101685.16;;;37.47;23.32
81478;BME280;70892;52.526;5.494;2023-07-08T12:53:40;101676.22;;;37.38;24.38
81478;BME280;70892;52.526;5.494;2023-07-08T12:56:11;101686.09;;;37.36;25.06
81478;BME280;70892;52.526;5.494;2023-07-08T12:58:57;101666.78;;;37.61;22.65
81478;BME280;70892;52.526;5.494;2023-07-08T13:01:30;101673.09;;;37.80;22.55
81478;BME280;70892;52.526;5.494;2023-07-08T13:04:05;101681.47;;;38.25;23.37
81478;BME280;70892;52.526;5.494;2023-07-08T13:06:33;101675.91;;;37.80;22.05
81478;BME280;70892;52.526;5.494;2023-07-08T13:09:19;101679.59;;;37.52;23.48
81478;BME280;70892;52.526;5.494;2023-07-08T13:11:50;101671.78;;;37.88;23.77
81478;BME280;70892;52.526;5.494;2023-07-08T13:14:19;101683.44;;;38.25;22.96
81478;BME280;70892;52.526;5.494;2023-07-08T13:16:45;101682.53;;;38.19;23.12
81478;BME280;70892;52.526;5.494;2023-07-08T13:19:12;101680.59;;;38.58;21.41
81478;BME280;70892;52.526;5.494;2023-07-08T13:21:37;101675.66;;;38.53;21.42
81478;BME280;70892;52.526;5.494;2023-07-08T13:24:10;101679.97;;;38.39;20.37
81478;BME280;70892;52.526;5.494;2023-07-08T13:26:39;101675.47;;;38.05;22.86
81478;BME280;70892;52.526;5.494;2023-07-08T13:29:11;101676.34;;;38.22;21.01
81478;BME280;70892;52.526;5.494;2023-07-08T13:31:38;101681.00;;;38.67;22.63
81478;BME280;70892;52.526;5.494;2023-07-08T13:34:14;101677.16;;;38.56;21.92
81478;BME280;70892;52.526;5.494;2023-07-08T13:36:43;101681.69;;;38.40;20.58
81478;BME280;70892;52.526;5.494;2023-07-08T13:41:58;101680.47;;;38.70;20.96
81478;BME280;70892;52.526;5.494;2023-07-08T13:44:24;101674.13;;;38.84;19.81
81478;BME280;70892;52.526;5.494;2023-07-08T13:49:29;101676.66;;;38.81;21.02
81478;BME280;70892;52.526;5.494;2023-07-08T13:52:24;101675.84;;;38.64;22.34
81478;BME280;70892;52.526;5.494;2023-07-08T13:54:58;101681.19;;;38.82;23.64
81478;BME280;70892;52.526;5.494;2023-07-08T13:57:32;101677.53;;;39.03;19.65
81478;BME280;70892;52.526;5.494;2023-07-08T13:59:58;101675.50;;;38.82;19.82
81478;BME280;70892;52.526;5.494;2023-07-08T14:02:27;101677.75;;;38.41;24.72
81478;BME280;70892;52.526;5.494;2023-07-08T14:04:55;101665.31;;;38.59;20.72
81478;BME280;70892;52.526;5.494;2023-07-08T14:07:25;101672.50;;;38.67;20.59